Tiempo atmosférico en la estación meteorológica de Barcelona Aeropuerto, Barcelona (4 m.)

Fecha
DESCASC
Temp. máxima en grados centígrados (hora)
DESCASC
Temp. mínima en grados centígrados (hora)
DESCASC
Temp. media en grados centígrados
DESCASC
Racha de viento máxima en m/sg (hora)
DESCASC
Velocidad máxima media en intervalos de 10 minutos(hora)
DESCASC
Precipitaciones diarias en mm
DESCASC
Precipitaciones de 00:00 a 06:00 en mm
DESCASC
Precipitaciones de 06:00 a 12:00 en mm
DESCASC
Precipitaciones de 12:00 a 18:00 en mm
DESCASC
Precipitaciones de 18:00 a 24:00 en mm
DESCASC
14-12-2017 -- (--) -- (--) -- -- (--) -- (--) -- -- -- -- 0
13-12-2017 14.1 (14:20) 3.3 (07:40) 8.7 9.72 (02:10) 7.78 (14:00) 0 0 0 0 0
12-12-2017 12 (14:10) 5.9 (23:59) 9 12.78 (22:50) 6.39 (06:00) 0 0 0 0 0
11-12-2017 17 (08:50) 8.5 (23:59) 12.8 18.89 (04:10) 13.33 (04:10) 1.6 0.4 1.2 0 0
10-12-2017 18.2 (11:30) 8.2 (00:00) 13.2 12.5 (10:40) 9.72 (10:40) 0 0 0 0 0
09-12-2017 13 (13:20) 5.1 (00:00) 9 8.89 (01:20) 6.67 (01:20) 0 0 0 0 0
08-12-2017 12.1 (16:20) 5.6 (00:00) 8.9 10.28 (12:30) 8.61 (12:30) 0 0 0 0 0
07-12-2017 15.3 (13:20) 4.2 (00:00) 9.8 10.83 (13:50) 6.94 (13:50) 0 0 0 0 0
06-12-2017 15.1 (14:20) 2.5 (00:00) 8.8 10.83 (02:10) 7.22 (06:50) 0 0 0 0 0
05-12-2017 14 (15:40) 2.7 (00:00) 8.4 9.72 (10:10) 7.5 (10:10) 0 0 0 0 0
04-12-2017 15.1 (14:40) 1.9 (00:00) 8.5 11.39 (18:50) 7.78 (07:30) 0 0 0 0 0
03-12-2017 13.5 (15:10) 3.2 (00:00) 8.4 11.39 (07:30) 8.61 (07:30) 0 0 0 0 0
02-12-2017 11.6 (14:00) 1.9 (00:00) 6.8 12.5 (13:10) 9.17 (11:20) 0 0 0 0 0
01-12-2017 8.6 (11:20) 2.7 (00:00) 5.7 10.28 (01:50) 6.39 (16:20) 0.3 0 0 0.3 0
30-11-2017 14.6 (14:50) 3.6 (00:00) 9.1 10.83 (20:20) 6.94 (01:20) 0 0 0 0 0
29-11-2017 14.3 (15:20) 4.4 (00:00) 9.4 9.17 (07:10) 7.5 (10:10) 0 0 0 0 0
28-11-2017 16.6 (15:10) 5.1 (00:00) 10.9 9.17 (08:40) 6.94 (09:40) 0 0 0 0 0
27-11-2017 14.5 (13:00) 4.9 (00:00) 9.7 8.89 (07:50) 6.67 (08:40) 0 0 0 0 0
26-11-2017 15.8 (14:00) 7.1 (00:00) 11.5 11.67 (07:40) 6.39 (07:50) 0 0 0 0 0
25-11-2017 17.6 (14:30) 9.8 (00:00) 13.7 10.83 (19:40) 6.67 (19:40) 0 0 0 0 0
24-11-2017 21 (14:40) 10 (00:00) 15.5 9.17 (15:10) 6.67 (15:10) 0 0 0 0 0
23-11-2017 19.4 (12:50) 9.6 (00:00) 14.5 9.72 (15:10) 7.5 (15:30) 0 0 0 0 0
22-11-2017 19.2 (14:10) 7.3 (00:00) 13.3 7.78 (01:50) 5.28 (08:10) 0 0 0 0 0
21-11-2017 19.9 (13:20) 7.6 (00:00) 13.7 8.89 (07:20) 6.67 (08:10) 0 0 0 0 0
20-11-2017 19.2 (13:40) 6.6 (00:00) 12.9 9.17 (05:50) 6.94 (05:50) 0 0 0 0 0
19-11-2017 18.3 (13:50) 7.2 (00:00) 12.7 9.72 (08:50) 7.22 (09:00) 0 0 0 0 0
18-11-2017 20.2 (14:10) 7.5 (00:00) 13.9 11.39 (03:40) 8.33 (09:40) 0 0 0 0 0
17-11-2017 19.2 (13:00) 6.1 (00:00) 12.7 8.89 (00:50) 6.94 (08:30) 0 0 0 0 0

Gráficas

Temp. máximas Temp. mínimas Temp. medias Precipitaciones Rachas de viento máximas Velocidades máximas media en intervalos de 10 minutos

Datos horarios

Fecha y hora oficial Temperatura (ºC) Velocidad del viento (km/h) Dirección del viento Racha (km/h) Dirección de racha Precipitación (mm) Presión (hPa) Tendencia (hPa) Humedad (%)
2017-12-16 23:00:00 6.2 9 Norte 13 Noroeste 0 1021.9 2.7 63
2017-12-16 22:00:00 7.4 9 Norte 17 Nordeste 0 1021.3 3.1 61
2017-12-16 21:00:00 8.9 8 Norte 15 Norte 0 1020.3 2.4 55
2017-12-16 20:00:00 9.6 8 Norte 26 Norte 0 1019.2 2 52
2017-12-16 19:00:00 10.8 20 Norte 45 Norte 0 1018.2 1.7 45
2017-12-16 18:00:00 11.6 13 Norte 30 Noroeste 0 1017.9 1.8 33
2017-12-16 17:00:00 13.4 18 Noroeste 28 Norte 0 1017.2 1.2 26
2017-12-16 16:00:00 14.6 18 Noroeste 30 Sudeste 0 1016.5 0.3 24
2017-12-16 15:00:00 14.4 14 Norte 26 Noroeste 0 1016.1 -0.3 28
2017-12-16 14:00:00 13.5 18 Norte 32 Norte 0 1016 -0.3 32
2017-12-16 13:00:00 12.2 16 Norte 35 Nordeste 0 1016.2 0.8 43
2017-12-16 12:00:00 11.7 17 Norte 30 Norte 0 1016.4 2.4 43
2017-12-16 11:00:00 9.4 16 Nordeste 26 Nordeste 0 1016.3 3.1 57
2017-12-16 10:00:00 8.1 18 Norte 33 Norte 0 1015.4 3.3 62
2017-12-16 09:00:00 6.6 19 Norte 32 Norte 0 1014 2.5 67
2017-12-16 08:00:00 5.7 25 Norte 37 Norte 0 1013.2 2.6 71
2017-12-16 07:00:00 6.1 17 Norte 37 Norte 0 1012.1 1.9 69
2017-12-16 06:00:00 6.6 29 Norte 41 Norte 0 1011.5 2.4 68
2017-12-16 05:00:00 6.9 24 Norte 33 Norte 0 1010.6 1.5 67
2017-12-16 04:00:00 7.8 25 Norte 45 Norte 0 1010.2 1.4 62
2017-12-16 03:00:00 8 27 Norte 39 Norte 0 1009.1 0.1 62
2017-12-16 02:00:00 8.4 18 Norte 26 Norte 0 1009.1 0.5 61
2017-12-16 01:00:00 7.9 13 Noroeste 21 Norte 0 1008.8 0.3 63
2017-12-16 00:00:00 9.4 14 Norte 22 Norte 0 1009 0.9 58
2017-12-15 23:00:00 9.1 9 Norte 22 Norte 0 1008.6 1 57
2017-12-15 22:00:00 10 13 Norte 17 Norte 0 1008.5 1.3 52
2017-12-15 21:00:00 10.1 4 Oeste 11 Norte 0 1008.1 1.2 63
2017-12-15 20:00:00 9.9 8 Noroeste 15 Norte 0 1007.6 1.3 77
2017-12-15 19:00:00 11.6 9 Norte 22 Norte 0 1007.2 1.6 74
2017-12-15 18:00:00 12.5 13 Este 24 Norte 0 1006.9 1.7 75
2017-12-15 17:00:00 13.8 9 Nordeste 21 Norte 0 1006.3 1.9 68
2017-12-15 16:00:00 14.2 16 Este 33 Nordeste 0 1005.6 0.7 65
2017-12-15 15:00:00 16.1 13 Norte 39 Noroeste 0 1005.2 -0.3 42
2017-12-15 14:00:00 17 10 Norte 39 Noroeste 0 1004.4 -1.6 37
2017-12-15 13:00:00 16.5 24 Oeste 45 Oeste 0 1004.9 -0.6 40
2017-12-15 12:00:00 16.6 15 Oeste 41 Oeste 0 1005.5 0.4 37
2017-12-15 11:00:00 16.3 13 Sudoeste 41 Oeste 0 1006 0.9 37
2017-12-15 10:00:00 14.1 19 Sudoeste 28 Sudoeste 0 1005.5 0.8 63
2017-12-15 09:00:00 10.5 8 Noroeste 15 Noroeste 0 1005.1 -0.1 83
2017-12-15 08:00:00 12.5 12 Noroeste 24 Oeste 0 1005.1 -1.1 73
2017-12-15 07:00:00 12.8 14 Oeste 26 Oeste 0 1004.7 -2.2 74
2017-12-15 06:00:00 10.8 10 Norte 13 Norte 0 1005.2 -2.2 84
2017-12-15 05:00:00 11.4 6 Noroeste 13 Norte 0 1006.2 -1.4 83
2017-12-15 04:00:00 11.7 13 Norte 22 Norte 0 1006.9 -1.2 81
2017-12-15 03:00:00 12.2 15 Norte 18 Norte 0 1007.4 -1.3 77
2017-12-15 02:00:00 12 8 Norte 13 Norte 0 1007.6 -1.8 75
2017-12-15 01:00:00 11.8 4 Norte 17 Norte 0 1008.1 -2.4 76
2017-12-15 00:00:00 12.2 10 Nordeste 13 Nordeste 0 1008.7 -2.2 74
2017-12-14 23:00:00 12.1 5 Oeste 17 Oeste 0 1009.4 -1.9 75
2017-12-14 22:00:00 13 10 Oeste 22 Oeste 0 1010.5 -1 76
2017-12-14 21:00:00 13.6 19 Oeste 26 Oeste 0 1010.9 -0.6 82
2017-12-14 20:00:00 13.9 16 Oeste 22 Oeste 0 1011.3 -0.5 68
2017-12-14 19:00:00 13.9 13 Oeste 21 Oeste 0 1011.5 -0.6 66
2017-12-14 18:00:00 14 12 Oeste 26 Oeste 0 1011.5 -1 71
2017-12-14 17:00:00 16 22 Oeste 33 Oeste 0 1011.8 -1.7 55
2017-12-14 16:00:00 15.7 12 Noroeste 28 Oeste 0 1012.1 -2.9 61
2017-12-14 15:00:00 15 10 Norte 18 Norte 0 1012.5 -- 62
2017-12-14 14:00:00 15.1 5 Norte 21 Norte 0 1013.5 -- 60
2017-12-14 13:00:00 13.8 12 Norte -- -- -- 1015 -- 62
2017-12-14 12:00:00 -- -- -- -- -- -- -- -- --
2017-12-14 11:00:00 -- -- -- -- -- -- -- -- --
2017-12-14 10:00:00 -- -- -- -- -- -- -- -- --
2017-12-14 09:00:00 -- -- -- -- -- -- -- -- --
2017-12-14 08:00:00 -- -- -- -- -- -- -- -- --
2017-12-14 07:00:00 -- -- -- -- -- -- -- -- --
2017-12-14 06:00:00 -- -- -- -- -- -- -- -- --
2017-12-14 05:00:00 -- -- -- -- -- -- -- -- --
2017-12-14 04:00:00 -- -- -- -- -- -- -- -- --
2017-12-14 03:00:00 -- -- -- -- -- -- -- -- --
2017-12-14 02:00:00 -- -- -- -- -- -- -- -- --
2017-12-14 01:00:00 -- -- -- -- -- -- -- -- --
2017-12-14 00:00:00 8.3 8 Nordeste 17 Norte 0 1018.7 -1.1 63
2017-12-13 23:00:00 8.8 10 Nordeste 13 Nordeste 0 1019.4 -0.8 60
2017-12-13 22:00:00 9.3 7 Nordeste 15 Oeste 0 1019.8 -0.6 58
2017-12-13 21:00:00 11.6 10 Sudoeste 21 Sudoeste 0 1019.8 -0.7 54
2017-12-13 20:00:00 11.8 14 Sudoeste 21 Sudoeste 0 1020.2 -0.4 49
2017-12-13 19:00:00 11.6 16 Oeste 33 Oeste 0 1020.4 -0.5 49
2017-12-13 18:00:00 11.4 15 Oeste 26 Oeste 0 1020.5 -0.3 51
2017-12-13 17:00:00 11.7 17 Oeste 26 Oeste 0 1020.6 -0.8 49
2017-12-13 16:00:00 12.5 16 Sudoeste 33 Oeste 0 1020.9 -1.1 48
2017-12-13 15:00:00 12.9 23 Sudoeste 35 Oeste 0 1020.8 -2.3 46
2017-12-13 14:00:00 13.4 28 Oeste 35 Oeste 0 1021.4 -2.9 48
2017-12-13 13:00:00 11.8 26 Sudoeste 33 Sudoeste 0 1022 -2.3 55
2017-12-13 12:00:00 11.4 21 Oeste 30 Oeste 0 1023.1 -1.1 53
2017-12-13 11:00:00 8.2 17 Norte 24 Norte 0 1024.3 0.5 63
2017-12-13 10:00:00 5.9 18 Norte 32 Norte 0 1024.3 1.1 68
2017-12-13 09:00:00 4.1 19 Norte 28 Norte 0 1024.2 1.6 74
2017-12-13 08:00:00 3.3 23 Norte 32 Norte 0 1023.8 1.2 76
2017-12-13 07:00:00 3.8 24 Norte 33 Norte 0 1023.2 0.4 75
2017-12-13 06:00:00 3.4 23 Norte 32 Norte 0 1022.6 -0.2 78
2017-12-13 05:00:00 3.8 18 Norte 32 Norte 0 1022.6 0.1 77
2017-12-13 04:00:00 4.7 21 Norte 32 Norte 0 1022.8 0.6 76
2017-12-13 03:00:00 4.6 23 Norte 35 Norte 0 1022.8 0.9 78
2017-12-13 02:00:00 4.7 23 Norte 30 Norte 0 1022.5 1.4 79
2017-12-13 01:00:00 5 16 Norte 24 Norte 0 1022.2 1.8 78
2017-12-13 00:00:00 6 20 Norte 26 Norte 0 1021.9 1.9 75
2017-12-12 23:00:00 6.6 18 Norte 46 Norte 0 1021.1 1.9 75
2017-12-12 22:00:00 7.9 11 Norte 41 Norte 0 1020.4 2.3 69
2017-12-12 21:00:00 8.5 12 Norte 30 Norte 0 1020 3.2 68
2017-12-12 20:00:00 9.1 10 Noroeste 24 Norte 0 1019.2 3.4 64
2017-12-12 19:00:00 10.8 3 Nordeste 22 Noroeste 0 1018.1 3.3 59
2017-12-12 18:00:00 11.3 9 Nordeste 26 Norte 0 1016.8 2.8 56
2017-12-12 17:00:00 11.5 11 Norte 35 Norte 0 1015.8 2.5 57
2017-12-12 16:00:00 11.7 15 Norte 37 Nordeste 0 1014.8 1.5 56
2017-12-12 15:00:00 11.8 13 Norte 33 Norte 0 1014 1 58
2017-12-12 14:00:00 11.8 14 Norte 32 Norte 0 1013.3 0.4 57
2017-12-12 13:00:00 11.1 21 Norte 28 Norte 0 1013.3 1.5 58
2017-12-12 12:00:00 10.5 17 Norte 24 Norte 0 1013 2.1 61
2017-12-12 11:00:00 8.8 17 Norte 26 Norte 0 1012.9 2.7 65
2017-12-12 10:00:00 7.9 17 Norte 28 Norte 0 1011.8 3 69
2017-12-12 09:00:00 7.4 14 Norte 22 Norte 0 1010.9 3.5 70
2017-12-12 08:00:00 6.4 8 Nordeste 18 Norte 0 1010.2 3.6 73
2017-12-12 07:00:00 6.3 14 Norte 26 Norte 0 1008.8 2.6 75
2017-12-12 06:00:00 6.8 23 Norte 33 Norte 0 1007.4 1.9 74
2017-12-12 05:00:00 6.9 12 Norte 21 Noroeste 0 1006.6 2.1 74
2017-12-12 04:00:00 7.4 10 Norte 22 Norte 0 1006.2 2.5 72
2017-12-12 03:00:00 6.7 15 Norte 26 Nordeste 0 1005.5 2.9 77
2017-12-12 02:00:00 7.5 5 Norte 13 Norte 0 1004.5 3.2 73
2017-12-12 01:00:00 8.4 5 Noroeste 11 Oeste 0 1003.7 3.2 68
2017-12-12 00:00:00 8.9 8 Noroeste 18 Oeste 0 1002.6 3.3 65
2017-12-11 23:00:00 10.2 16 Oeste 24 Oeste 0 1001.3 3.5 60
2017-12-11 22:00:00 11.3 17 Sudoeste 26 Oeste 0 1000.5 4.2 56
2017-12-11 21:00:00 11.7 21 Oeste 24 Oeste 0 999.3 4.4 54
2017-12-11 20:00:00 11.3 17 Oeste 26 Oeste 0 997.8 4.5 56
2017-12-11 19:00:00 12.5 21 Oeste 28 Oeste 0 996.3 4.5 54
2017-12-11 18:00:00 11.8 16 Oeste 26 Oeste 0 994.9 4.5 63
2017-12-11 17:00:00 13.5 13 Oeste 22 Oeste 0 993.3 3.4 60
2017-12-11 16:00:00 14.3 19 Oeste 28 Oeste 0 991.8 1.6 55
2017-12-11 15:00:00 14.7 20 Oeste 35 Oeste 0 990.4 -0.1 57
2017-12-11 14:00:00 14.5 14 Oeste 21 Oeste 0 989.9 0 69
2017-12-11 13:00:00 13.8 15 Oeste 26 Oeste 0 990.2 1 71
2017-12-11 12:00:00 13.3 12 Oeste 30 Oeste 0.2 990.5 1.9 81
2017-12-11 11:00:00 14.7 12 Oeste 61 Oeste 0.6 989.9 1 82
2017-12-11 10:00:00 16.8 42 Sudoeste 61 Sudoeste 0.2 989.2 -0.1 80
2017-12-11 09:00:00 16.8 36 Sudoeste 59 Sudoeste 0 988.6 -1.2 78
2017-12-11 08:00:00 16.8 35 Sudoeste 61 Sudoeste 0 988.9 -1.4 75
2017-12-11 07:00:00 16.2 41 Sudoeste 59 Sudoeste 0.2 989.3 -1.7 75
2017-12-11 06:00:00 15.9 39 Sudoeste 67 Sudoeste 0.4 989.8 -2.8 77
2017-12-11 05:00:00 16.2 39 Sudoeste 68 Oeste 0 990.3 -3.1 73
2017-12-11 04:00:00 15.7 48 Sudoeste 63 Oeste 0 991 -4.2 77
2017-12-11 03:00:00 15.5 37 Oeste 54 Oeste 0 992.6 -3.6 79
2017-12-11 02:00:00 15.1 35 Oeste 50 Oeste 0 993.4 -4.1 78
2017-12-11 01:00:00 14.9 30 Oeste 45 Oeste 0 995.2 -4.2 81
2017-12-11 00:00:00 11.3 9 Oeste 13 Sudoeste 0 996.2 -4.2 86
2017-12-10 23:00:00 13.5 9 Oeste 18 Sudoeste 0 997.5 -3.8 88
2017-12-10 22:00:00 14.8 15 Sudoeste 21 Sudoeste 0 999.4 -3.2 87
2017-12-10 21:00:00 14.8 11 Oeste 24 Sudoeste 0 1000.4 -2.8 86
2017-12-10 20:00:00 15 14 Sudoeste 21 Oeste 0 1001.3 -2.4 84
2017-12-10 19:00:00 15.2 18 Oeste 26 Oeste 0 1002.6 -2.5 80
2017-12-10 18:00:00 15.4 18 Oeste 28 Oeste 0 1003.2 -3 69
2017-12-10 17:00:00 16.1 22 Oeste 33 Oeste 0 1003.7 -3.6 75
2017-12-10 16:00:00 16.9 24 Oeste 33 Oeste 0 1005.1 -3 67
2017-12-10 15:00:00 17.2 15 Oeste 33 Oeste 0 1006.2 -3.8 65
2017-12-10 14:00:00 17.2 23 Sudoeste 35 Sudoeste 0 1007.3 -3.8 56
2017-12-10 13:00:00 17.4 27 Sudoeste 37 Oeste 0 1008.1 -3.5 55
2017-12-10 12:00:00 17.8 28 Oeste 45 Oeste 0 1010 -1.7 49
2017-12-10 11:00:00 16 27 Oeste 45 Oeste 0 1011.1 -1.1 58
2017-12-10 10:00:00 11.3 17 Norte 30 Oeste 0 1011.6 -0.9 72
2017-12-10 09:00:00 9.3 3 Norte 15 Nordeste 0 1011.7 -1.3 77
2017-12-10 08:00:00 9 17 Norte 33 Norte 0 1012.2 -1.7 78
2017-12-10 07:00:00 8.6 12 Norte 18 Nordeste 0 1012.5 -2.4 79
2017-12-10 06:00:00 8.6 13 Norte 21 Norte 0 1013 -3 80
2017-12-10 05:00:00 9.1 11 Norte 17 Norte 0 1013.9 -2.9 82
2017-12-10 04:00:00 8.9 10 Norte 15 Norte 0 1014.9 -3.5 86
2017-12-10 03:00:00 11.1 10 Oeste 28 Oeste 0 1016 -3.4 89
2017-12-10 02:00:00 11.6 21 Oeste 33 Oeste 0 1016.8 -3.2 79
2017-12-10 01:00:00 8.8 6 Noroeste 11 Oeste 0 1018.4 -2.2 70
2017-12-10 00:00:00 8.2 5 Norte 11 Norte 0 1019.4 -1.4 72
2017-12-09 23:00:00 7.9 5 Norte 11 Norte 0 1020 -0.8 74
2017-12-09 22:00:00 7.4 7 Norte 11 Norte 0 1020.6 -0.4 75
2017-12-09 21:00:00 7.5 3 Norte 11 Noroeste 0 1020.8 -0.4 74
2017-12-09 20:00:00 8.7 3 Noroeste 18 Norte 0 1020.8 -0.5 70
2017-12-09 19:00:00 10.6 7 Oeste 18 Sudoeste 0 1021 -0.3 65
2017-12-09 18:00:00 11 12 Sudoeste 22 Sudoeste 0 1021.2 -0.3 63
2017-12-09 17:00:00 11.4 9 Oeste 11 Oeste 0 1021.3 -0.8 59
2017-12-09 16:00:00 11.7 8 Sur 13 Sudeste 0 1021.3 -1.3 69
2017-12-09 15:00:00 11.8 7 Sur 17 Sur 0 1021.5 -1.6 68
2017-12-09 14:00:00 12.4 12 Sudeste 18 Sur 0 1022.1 -0.9 65
2017-12-09 13:00:00 11.7 6 Norte 21 Norte 0 1022.6 0.3 53
2017-12-09 12:00:00 9.8 19 Norte 30 Norte 0 1023.1 1.3 59
2017-12-09 11:00:00 7.1 21 Norte 30 Norte 0 1023 1.7 69
2017-12-09 10:00:00 5.9 23 Norte 32 Norte 0 1022.3 1.4 73
2017-12-09 09:00:00 5.7 23 Norte 30 Norte 0 1021.8 1.4 73
2017-12-09 08:00:00 5.5 20 Norte 28 Norte 0 1021.3 1.1 75
2017-12-09 07:00:00 5.3 21 Norte 28 Norte 0 1020.9 0.7 76
2017-12-09 06:00:00 5.2 19 Norte 26 Norte 0 1020.4 0.6 77
2017-12-09 05:00:00 5.5 20 Norte 30 Norte 0 1020.2 0.1 77
2017-12-09 04:00:00 5.8 19 Norte 30 Norte 0 1020.2 -0.2 75
2017-12-09 03:00:00 5.8 18 Norte 32 Norte 0 1019.8 -0.6 74
2017-12-09 02:00:00 6 21 Norte 32 Norte 0 1020.1 -0.4 73
2017-12-09 01:00:00 6.8 16 Norte 28 Norte 0 1020.4 -0.5 70
2017-12-09 00:00:00 8.1 19 Norte 24 Norte 0 1020.4 -0.6 69
2017-12-08 23:00:00 8.3 17 Norte 24 Norte 0 1020.5 -0.5 69
2017-12-08 22:00:00 9 15 Norte 21 Norte 0 1020.9 -0.2 67
2017-12-08 21:00:00 9.1 14 Norte 17 Norte 0 1021 0 67
2017-12-08 20:00:00 9.1 5 Norte 15 Norte 0 1021 0.3 70
2017-12-08 19:00:00 10.1 6 Norte 18 Norte 0 1021.1 0.8 62
2017-12-08 18:00:00 10.3 15 Norte 26 Norte 0 1021 0.8 60
2017-12-08 17:00:00 11.1 19 Norte 30 Norte 0 1020.7 0.1 56
2017-12-08 16:00:00 11.8 20 Norte 28 Norte 0 1020.3 -1.1 53
2017-12-08 15:00:00 10.9 16 Norte 37 Norte 0 1020.2 -1.4 55
2017-12-08 14:00:00 10.1 23 Norte 33 Norte 0 1020.6 -1.7 55
2017-12-08 13:00:00 9.9 28 Norte 37 Norte 0 1021.4 -1.2 54
2017-12-08 12:00:00 9.7 25 Norte 33 Norte 0 1021.6 -1.1 54
2017-12-08 11:00:00 9.6 18 Norte 26 Norte 0 1022.3 -0.8 53
2017-12-08 10:00:00 7.5 18 Norte 28 Norte 0 1022.6 -0.6 59
2017-12-08 09:00:00 6.1 14 Norte 26 Norte 0 1022.7 -1.1 63
2017-12-08 08:00:00 5.8 22 Norte 30 Norte 0 1023.1 -1 64
2017-12-08 07:00:00 6 23 Norte 33 Norte 0 1023.2 -1.5 63
2017-12-08 06:00:00 6.1 21 Norte 32 Norte 0 1023.8 -1.4 61
2017-12-08 05:00:00 6.2 20 Norte 35 Norte 0 1024.1 -1.4 61
2017-12-08 04:00:00 6.6 23 Norte 33 Norte 0 1024.7 -1.4 62
2017-12-08 03:00:00 6.6 17 Norte 30 Norte 0 1025.2 -1.6 62
2017-12-08 02:00:00 7.1 9 Norte 18 Norte 0 1025.5 -1.7 60
2017-12-08 01:00:00 7.2 17 Norte 24 Norte 0 1026.1 -1.3 64
2017-12-08 00:00:00 7.7 18 Norte 26 Norte 0 1026.8 -0.8 63
2017-12-07 23:00:00 8.4 11 Norte 18 Norte 0 1027.2 -0.6 65
2017-12-07 22:00:00 9.2 12 Norte 21 Norte 0 1027.4 -0.2 67
2017-12-07 21:00:00 10.5 8 Noroeste 11 Noroeste 0 1027.6 0.1 66
2017-12-07 20:00:00 11.4 6 Norte 15 Oeste 0 1027.8 0.1 68
2017-12-07 19:00:00 12.1 13 Oeste 18 Oeste 0 1027.6 -0.3 71
2017-12-07 18:00:00 12.1 11 Oeste 18 Oeste 0 1027.5 -0.7 74
2017-12-07 17:00:00 13.6 13 Oeste 26 Oeste 0 1027.7 -1 69
2017-12-07 16:00:00 14.8 20 Oeste 30 Oeste 0 1027.9 -1.7 66
2017-12-07 15:00:00 14.9 20 Sudoeste 33 Sudoeste 0 1028.2 -2.3 65
2017-12-07 14:00:00 15 24 Sudoeste 39 Sudoeste 0 1028.7 -2.5 66
2017-12-07 13:00:00 13.6 7 Norte 21 Sudoeste 0 1029.6 -1.3 59
2017-12-07 12:00:00 11.6 12 Norte 18 Norte 0 1030.5 -0.2 57
2017-12-07 11:00:00 9 14 Norte 28 Norte 0 1031.2 0.8 62
2017-12-07 10:00:00 7 19 Norte 28 Norte 0 1030.9 0.6 68
2017-12-07 09:00:00 5 21 Norte 28 Norte 0 1030.7 0.3 74
2017-12-07 08:00:00 4.6 20 Norte 26 Norte 0 1030.4 -0.2 75
2017-12-07 07:00:00 4.6 20 Norte 28 Norte 0 1030.3 -0.7 76
2017-12-07 06:00:00 4.5 20 Norte 30 Norte 0 1030.4 -0.8 78
2017-12-07 05:00:00 4.9 22 Norte 30 Norte 0 1030.6 -0.7 74
2017-12-07 04:00:00 5 23 Norte 28 Norte 0 1031 -0.8 78
2017-12-07 03:00:00 5.2 20 Norte 28 Norte 0 1031.2 -1.1 76
2017-12-07 02:00:00 5.7 19 Norte 26 Norte 0 1031.3 -0.9 76
2017-12-07 01:00:00 6 20 Norte 26 Norte 0 1031.8 -0.5 76
2017-12-07 00:00:00 6.6 16 Norte 22 Norte 0 1032.3 0 79
2017-12-06 23:00:00 7.2 16 Norte 22 Norte 0 1032.2 0.1 80
2017-12-06 22:00:00 7 7 Norte 11 Norte 0 1032.3 0.5 84
2017-12-06 21:00:00 7.9 3 Norte 9 Norte 0 1032.3 0.5 84
2017-12-06 20:00:00 9.4 3 Noroeste 8 Noroeste 0 1032.1 0.5 82
2017-12-06 19:00:00 10.5 7 Noroeste 17 Oeste 0 1031.8 0 80
2017-12-06 18:00:00 11.6 13 Oeste 18 Sudoeste 0 1031.8 -0.1 76
2017-12-06 17:00:00 13.6 14 Sudoeste 22 Sudoeste 0 1031.6 -0.9 67
2017-12-06 16:00:00 14.5 17 Sudoeste 24 Oeste 0 1031.8 -1.6 63
2017-12-06 15:00:00 14.8 19 Sudoeste 26 Sudoeste 0 1031.9 -2.4 61
2017-12-06 14:00:00 14.2 11 Sur 18 Sur 0 1032.5 -2.4 66
2017-12-06 13:00:00 12.8 5 Norte 13 Norte 0 1033.4 -1.2 54
2017-12-06 12:00:00 10 13 Norte 26 Norte 0 1034.3 -0.1 52
2017-12-06 11:00:00 6.8 19 Norte 28 Norte 0 1034.9 0.7 58
2017-12-06 10:00:00 4.6 22 Norte 32 Norte 0 1034.6 0.4 64
2017-12-06 09:00:00 2.9 24 Norte 33 Norte 0 1034.4 0.2 71
2017-12-06 08:00:00 2.5 26 Norte 33 Norte 0 1034.2 0 72
2017-12-06 07:00:00 2.8 26 Norte 33 Norte 0 1034.2 -0.3 73
2017-12-06 06:00:00 2.8 24 Norte 32 Norte 0 1034.2 -0.4 74
2017-12-06 05:00:00 3.2 23 Norte 32 Norte 0 1034.2 -0.4 73
2017-12-06 04:00:00 3.3 23 Norte 32 Norte 0 1034.5 -0.4 73
2017-12-06 03:00:00 3.7 24 Norte 39 Nordeste 0 1034.6 -0.5 73
2017-12-06 02:00:00 4.4 22 Norte 33 Norte 0 1034.6 -0.4 72
2017-12-06 01:00:00 5.1 22 Norte 30 Norte 0 1034.9 -0.2 71
2017-12-06 00:00:00 6.1 21 Norte 26 Norte 0 1035.1 0.1 68
2017-12-05 23:00:00 6.6 20 Norte 26 Norte 0 1035 0.2 68
2017-12-05 22:00:00 7.3 16 Norte 24 Norte 0 1035.1 0.6 67
2017-12-05 21:00:00 7.4 15 Norte 18 Norte 0 1035 0.7 71
2017-12-05 20:00:00 7.8 13 Norte 17 Norte 0 1034.8 0.7 73
2017-12-05 19:00:00 8.2 8 Norte 11 Norte 0 1034.5 0.3 71
2017-12-05 18:00:00 10.8 9 Oeste 11 Oeste 0 1034.3 0.2 62
2017-12-05 17:00:00 13 3 Sudoeste 9 Sudoeste 0 1034.1 -0.7 55
2017-12-05 16:00:00 13.4 8 Sudoeste 13 Sudoeste 0 1034.2 -1.1 53
2017-12-05 15:00:00 13.5 6 Sur 17 Sudoeste 0 1034.1 -1.8 59
2017-12-05 14:00:00 13 4 Oeste 17 Norte 0 1034.8 -1.5 55
2017-12-05 13:00:00 11.4 13 Norte 26 Norte 0 1035.3 -0.6 53
2017-12-05 12:00:00 9.5 21 Norte 32 Norte 0 1035.9 0.3 58
2017-12-05 11:00:00 7.4 24 Norte 35 Norte 0 1036.3 1.1 63
2017-12-05 10:00:00 5.2 26 Norte 33 Norte 0 1035.9 1.1 66
2017-12-05 09:00:00 3.5 25 Norte 33 Norte 0 1035.6 1.3 70
2017-12-05 08:00:00 2.8 23 Norte 32 Norte 0 1035.2 0.8 70
2017-12-05 07:00:00 3.1 22 Norte 30 Norte 0 1034.8 0.2 69
2017-12-05 06:00:00 3.5 22 Norte 30 Norte 0 1034.3 -0.3 68
2017-12-05 05:00:00 3.1 22 Norte 30 Norte 0 1034.4 -0.1 67
2017-12-05 04:00:00 3.7 20 Norte 30 Norte 0 1034.6 -0.1 65
2017-12-05 03:00:00 4.1 20 Norte 30 Norte 0 1034.6 -0.1 65
2017-12-05 02:00:00 4.9 21 Norte 28 Norte 0 1034.5 0.1 65
2017-12-05 01:00:00 5.6 21 Norte 28 Norte 0 1034.7 0.7 65
2017-12-05 00:00:00 6.4 15 Norte 26 Norte 0 1034.7 0.8 63
2017-12-04 23:00:00 7 21 Norte 26 Norte 0 1034.4 0.8 61
2017-12-04 22:00:00 7.7 19 Norte 26 Norte 0 1034 0.6 59
2017-12-04 21:00:00 7.8 20 Norte 28 Norte 0 1033.9 1.1 57
2017-12-04 20:00:00 8.9 16 Norte 21 Norte 0 1033.6 1.3 51
2017-12-04 19:00:00 10.2 13 Norte 41 Norte 0 1033.4 1.4 46
2017-12-04 18:00:00 11 9 Norte 13 Norte 0 1032.8 0.8 46
2017-12-04 17:00:00 13.9 4 Sudoeste 11 Sudoeste 0 1032.3 0.1 37
2017-12-04 16:00:00 14.4 8 Sudoeste 13 Sudoeste 0 1032 -0.6 37
2017-12-04 15:00:00 14 12 Sudoeste 17 Sudoeste 0 1032 -1.1 41
2017-12-04 14:00:00 13.5 10 Norte 21 Norte 0 1032.2 -1 30
2017-12-04 13:00:00 12.2 16 Norte 24 Norte 0 1032.6 0.2 33
2017-12-04 12:00:00 10 17 Norte 30 Norte 0 1033.1 1.4 37
2017-12-04 11:00:00 7.4 22 Norte 32 Norte 0 1033.2 2 41
2017-12-04 10:00:00 4.6 24 Norte 35 Norte 0 1032.4 1.8 47
2017-12-04 09:00:00 2.6 26 Norte 37 Norte 0 1031.7 1.5 50
2017-12-04 08:00:00 2 24 Norte 37 Norte 0 1031.2 1.2 52
2017-12-04 07:00:00 2.3 24 Norte 33 Norte 0 1030.6 0.7 49
2017-12-04 06:00:00 2.8 18 Norte 35 Norte 0 1030.2 0.6 46
2017-12-04 05:00:00 3.1 24 Norte 37 Norte 0 1030 0.5 45
2017-12-04 04:00:00 3.6 26 Norte 35 Norte 0 1029.9 0.8 42
2017-12-04 03:00:00 3.5 22 Norte 32 Norte 0 1029.6 1 43
2017-12-04 02:00:00 3.9 22 Norte 35 Norte 0 1029.5 1.7 42
2017-12-04 01:00:00 4.9 23 Norte 33 Norte 0 1029.1 2 38
2017-12-04 00:00:00 5.3 22 Norte 30 Norte 0 1028.6 2.2 37
2017-12-03 23:00:00 5.3 19 Norte 28 Norte 0 1027.8 2 37
2017-12-03 22:00:00 6.4 21 Norte 30 Norte 0 1027.1 1.6 32
2017-12-03 21:00:00 7.2 21 Norte 28 Norte 0 1026.4 1.6 30
2017-12-03 20:00:00 7.3 15 Norte 26 Norte 0 1025.8 1.7 30
2017-12-03 19:00:00 8.2 18 Noroeste 26 Noroeste 0 1025.5 1.9 28
2017-12-03 18:00:00 8.8 17 Noroeste 22 Noroeste 0 1024.8 1.7 26
2017-12-03 17:00:00 10.5 19 Noroeste 28 Noroeste 0 1024.1 1.1 21
2017-12-03 16:00:00 12.3 18 Norte 26 Norte 0 1023.6 0 17
2017-12-03 15:00:00 13.2 9 Norte 18 Norte 0 1023.1 -1 20
2017-12-03 14:00:00 12.2 14 Norte 26 Norte 0 1023 -0.7 23
2017-12-03 13:00:00 10.7 15 Norte 28 Norte 0 1023.6 0.3 27
2017-12-03 12:00:00 9.7 22 Norte 33 Norte 0 1024.1 1.4 26
2017-12-03 11:00:00 7.4 22 Norte 30 Norte 0 1023.7 2.1 30
2017-12-03 10:00:00 5.3 20 Norte 35 Norte 0 1023.3 2.8 35
2017-12-03 09:00:00 3.7 17 Norte 33 Norte 0 1022.7 3.3 40
2017-12-03 08:00:00 3.5 27 Norte 41 Norte 0 1021.6 2.6 40
2017-12-03 07:00:00 4.1 24 Norte 39 Norte 0 1020.5 1.9 37
2017-12-03 06:00:00 4.2 18 Norte 33 Norte 0 1019.4 1.3 37
2017-12-03 05:00:00 4.8 17 Norte 26 Norte 0 1019 1.2 34
2017-12-03 04:00:00 5.8 18 Norte 26 Norte 0 1018.6 0.7 30
2017-12-03 03:00:00 6.5 13 Norte 21 Norte 0 1018.1 0.5 29
2017-12-03 02:00:00 7.5 14 Norte 21 Noroeste 0 1017.8 0.5 28
2017-12-03 01:00:00 7.6 9 Norte 18 Norte 0 1017.9 0.8 29
2017-12-03 00:00:00 7.5 14 Oeste 17 Oeste 0 1017.6 1.1 39
2017-12-02 23:00:00 8.5 6 Sudeste 11 Sudeste 0 1017.3 1.4 42
2017-12-02 22:00:00 7.9 10 Nordeste 17 Nordeste 0 1017.1 2.8 45
2017-12-02 21:00:00 7.7 3 Noroeste 32 Nordeste 0 1016.5 3.6 46
2017-12-02 20:00:00 8.7 24 Norte 45 Norte 0 1015.9 4.2 38
2017-12-02 19:00:00 9.6 14 Nordeste 35 Norte 0 1014.3 3.5 35
2017-12-02 18:00:00 9.2 14 Norte 21 Norte 0 1012.9 2.4 18
2017-12-02 17:00:00 9.8 13 Noroeste 30 Noroeste 0 1011.7 0.7 16
2017-12-02 16:00:00 10.6 24 Noroeste 37 Noroeste 0 1010.8 -1 14
2017-12-02 15:00:00 10.6 17 Oeste 35 Noroeste 0 1010.5 -2.3 19
2017-12-02 14:00:00 11.3 24 Noroeste 45 Noroeste 0 1011 -2.5 19
2017-12-02 13:00:00 9.8 29 Noroeste 41 Noroeste 0 1011.8 -1.9 22
2017-12-02 12:00:00 8.7 23 Noroeste 42 Noroeste 0 1012.8 -0.7 26
2017-12-02 11:00:00 7.5 26 Noroeste 41 Noroeste 0 1013.5 0 30
2017-12-02 10:00:00 5.1 18 Norte 30 Noroeste 0 1013.7 0.3 44
2017-12-02 09:00:00 2.6 14 Norte 22 Norte 0 1013.5 0.4 60
2017-12-02 08:00:00 2 19 Norte 30 Norte 0 1013.5 0.6 63
2017-12-02 07:00:00 2.5 23 Norte 37 Norte 0 1013.4 0.2 59
2017-12-02 06:00:00 3.2 23 Norte 35 Norte 0 1013.1 -0.3 55
2017-12-02 05:00:00 3.1 15 Norte 26 Norte 0 1012.9 -0.5 51
2017-12-02 04:00:00 3.7 17 Norte 30 Norte 0 1013.2 -0.5 46
2017-12-02 03:00:00 4.6 24 Norte 33 Norte 0 1013.4 -0.7 39
2017-12-02 02:00:00 5.2 24 Norte 39 Norte 0 1013.4 -1.1 35
2017-12-02 01:00:00 4.6 18 Norte 24 Norte 0 1013.7 -0.6 37
2017-12-02 00:00:00 3.1 11 Norte 18 Norte 0 1014.1 -0.2 55
2017-12-01 23:00:00 3 7 Norte 21 Norte 0 1014.5 0.9 71
2017-12-01 22:00:00 3.9 14 Norte 18 Norte 0 1014.3 1.4 73
2017-12-01 21:00:00 4.4 12 Norte 15 Norte 0 1014.3 2.6 80
2017-12-01 20:00:00 5.4 7 Noroeste 18 Norte 0 1013.6 2.1 76
2017-12-01 19:00:00 7 7 Norte 22 Nordeste 0 1012.9 2.7 61
2017-12-01 18:00:00 6.9 20 Nordeste 30 Nordeste 0 1011.7 2.8 67
2017-12-01 17:00:00 7.1 20 Este 30 Este 0 1011.5 1.7 80
2017-12-01 16:00:00 8.1 20 Nordeste 28 Nordeste 0 1010.2 0.1 72
2017-12-01 15:00:00 8 10 Nordeste 28 Norte 0 1008.9 -2 59
2017-12-01 14:00:00 7.9 8 Norte 18 Noroeste 0.3 1009.8 -1.7 74
2017-12-01 13:00:00 8 13 Noroeste 22 Norte 0 1010.1 -1.2 68
2017-12-01 12:00:00 8.2 7 Norte 22 Este 0 1010.9 -0.1 60
2017-12-01 11:00:00 7.4 18 Nordeste 30 Nordeste 0 1011.5 0.8 62
2017-12-01 10:00:00 7.4 12 Nordeste 21 Norte 0 1011.3 0.4 64
2017-12-01 09:00:00 5.9 14 Norte 22 Norte 0 1011 -0.5 68
2017-12-01 08:00:00 5.1 13 Norte 18 Norte 0 1010.7 -1.2 71
2017-12-01 07:00:00 5.9 6 Oeste 11 Oeste 0 1010.9 -1.8 69
2017-12-01 06:00:00 5.5 11 Oeste 17 Oeste 0 1011.5 -1.7 69
2017-12-01 05:00:00 6.6 8 Oeste 21 Noroeste 0 1011.9 -1.5 65
2017-12-01 04:00:00 7 12 Noroeste 30 Noroeste 0 1012.7 -0.8 61
2017-12-01 03:00:00 6 9 Noroeste 17 Norte 0 1013.2 -1.1 64
2017-12-01 02:00:00 6.7 17 Norte 37 Norte 0 1013.4 -0.7 59
2017-12-01 01:00:00 6.7 19 Norte 26 Norte 0 1013.5 -0.6 55
2017-12-01 00:00:00 6.7 19 Noroeste 24 Noroeste 0 1014.3 0.1 50
2017-11-30 23:00:00 6.6 18 Norte 24 Norte 0 1014.1 -0.1 47
2017-11-30 22:00:00 6.6 15 Norte 21 Norte 0 1014.1 0.2 43
2017-11-30 21:00:00 8 14 Norte 39 Este 0 1014.2 0.8 35
2017-11-30 20:00:00 8.3 11 Norte 15 Norte 0 1014.2 1.5 33
2017-11-30 19:00:00 8.9 9 Norte 13 Norte 0 1013.9 1.7 32
2017-11-30 18:00:00 9.9 7 Noroeste 18 Noroeste 0 1013.4 1.4 27
2017-11-30 17:00:00 12.4 14 Noroeste 22 Noroeste 0 1012.7 0.5 22
2017-11-30 16:00:00 13.6 14 Noroeste 22 Noroeste 0 1012.2 -0.3 22
2017-11-30 15:00:00 14.3 3 Norte 13 Norte 0 1012 -0.6 24
2017-11-30 14:00:00 13.4 10 Norte 21 Norte 0 1012.2 -0.5 26
2017-11-30 13:00:00 12.4 12 Nordeste 24 Norte 0 1012.5 0 32
2017-11-30 12:00:00 10.9 17 Norte 32 Norte 0 1012.6 0.6 33
2017-11-30 11:00:00 8.5 18 Norte 30 Norte 0 1012.7 1.7 47
2017-11-30 10:00:00 6.3 19 Norte 32 Norte 0 1012.5 1.8 59
2017-11-30 09:00:00 4.7 16 Norte 24 Norte 0 1012 1.9 66
2017-11-30 08:00:00 3.8 18 Norte 28 Norte 0 1011 1.1 72
2017-11-30 07:00:00 4 18 Norte 37 Norte 0 1010.7 1 74
2017-11-30 06:00:00 4.3 22 Norte 33 Nordeste 0 1010.1 0.6 75
2017-11-30 05:00:00 5.2 17 Norte 30 Norte 0 1009.9 0.8 74
2017-11-30 04:00:00 5.4 22 Norte 30 Norte 0 1009.7 0.7 74
2017-11-30 03:00:00 5.5 19 Norte 30 Norte 0 1009.5 0.9 75
2017-11-30 02:00:00 5.8 24 Norte 32 Norte 0 1009.1 0.9 77
2017-11-30 01:00:00 5.9 21 Norte 26 Norte 0 1009 1 79
2017-11-30 00:00:00 6.9 11 Norte 17 Norte 0 1008.6 0.9 76
2017-11-29 23:00:00 9.1 13 Norte 21 Norte 0 1008.2 0.6 70
2017-11-29 22:00:00 8.6 15 Norte 21 Norte 0 1008 0.7 76
2017-11-29 21:00:00 9.6 12 Norte 22 Norte 0 1007.7 1 75
2017-11-29 20:00:00 10.6 10 Norte 15 Norte 0 1007.6 1.5 66
2017-11-29 19:00:00 11.5 9 Nordeste 21 Nordeste 0 1007.3 1.6 62
2017-11-29 18:00:00 12.1 13 Este 21 Este 0 1006.7 1.2 60
2017-11-29 17:00:00 12.9 17 Este 24 Este 0 1006.1 0.7 56
2017-11-29 16:00:00 13.7 14 Este 21 Este 0 1005.7 -0.4 50
2017-11-29 15:00:00 13.9 12 Nordeste 26 Este 0 1005.5 -1.2 50
2017-11-29 14:00:00 13.8 11 Nordeste 22 Norte 0 1005.4 -1.7 51
2017-11-29 13:00:00 13.1 17 Norte 26 Norte 0 1006.1 -1.1 52
2017-11-29 12:00:00 11.8 20 Norte 28 Norte 0 1006.7 -0.6 54
2017-11-29 11:00:00 8.7 23 Norte 33 Norte 0 1007.1 0.2 59
2017-11-29 10:00:00 5.8 24 Norte 33 Norte 0 1007.2 0.2 66
2017-11-29 09:00:00 4.7 21 Norte 30 Norte 0 1007.3 0.2 70
2017-11-29 08:00:00 4.6 22 Norte 33 Norte 0 1006.9 -0.5 71
2017-11-29 07:00:00 5.1 24 Norte 32 Norte 0 1007 -0.9 69
2017-11-29 06:00:00 5.8 22 Norte 32 Norte 0 1007.1 -1.6 66
2017-11-29 05:00:00 5.4 16 Norte 28 Norte 0 1007.4 -1.6 68
2017-11-29 04:00:00 5.5 21 Norte 28 Norte 0 1007.9 -1.9 68
2017-11-29 03:00:00 5.8 23 Norte 32 Norte 0 1008.7 -1.9 67
2017-11-29 02:00:00 5.8 20 Norte 28 Norte 0 1009 -2 68
2017-11-29 01:00:00 6.2 18 Norte 28 Norte 0 1009.8 -1.4 66
2017-11-29 00:00:00 6.7 14 Norte 24 Norte 0 1010.6 -1 65
2017-11-28 23:00:00 7.3 18 Norte 24 Norte 0 1011 -1 62
2017-11-28 22:00:00 8.4 18 Norte 24 Norte 0 1011.2 -0.4 57
2017-11-28 21:00:00 9.4 12 Norte 21 Norte 0 1011.6 -0.1 51
2017-11-28 20:00:00 9.9 14 Norte 21 Norte 0 1012 0.1 47
2017-11-28 19:00:00 10.8 16 Norte -- -- 0 1011.6 -0.3 45
2017-11-28 18:00:00 12.1 5 Norte 17 Norte 0 1011.7 -1 40
2017-11-28 17:00:00 14.3 12 Norte 18 Norte 0 1011.9 -1.7 35
2017-11-28 16:00:00 16.3 11 Oeste 22 Oeste 0 1011.9 -2.8 38
2017-11-28 15:00:00 16.3 8 Oeste 18 Sudoeste 0 1012.7 -3.6 41
2017-11-28 14:00:00 15.5 10 Sur 15 Sudoeste 0 1013.6 -3.7 41
2017-11-28 13:00:00 14 10 Norte 26 Norte 0 1014.7 -3 39
2017-11-28 12:00:00 12.3 20 Norte 28 Norte 0 1016.3 -1.7 45
2017-11-28 11:00:00 10.1 23 Norte 33 Norte 0 1017.3 -0.6 54
2017-11-28 10:00:00 7.7 22 Norte 33 Norte 0 1017.7 -0.5 62
2017-11-28 09:00:00 5.7 22 Norte 33 Norte 0 1018 -0.5 70
2017-11-28 08:00:00 5.8 18 Norte 24 Norte 0 1017.9 -1.4 70
2017-11-28 07:00:00 6 19 Norte 28 Norte 0 1018.2 -2 70
2017-11-28 06:00:00 6.3 8 Norte 22 Norte 0 1018.5 -2.3 70
2017-11-28 05:00:00 6.1 8 Norte 13 Norte 0 1019.3 -2.3 74
2017-11-28 04:00:00 6.1 8 Norte 13 Norte 0 1020.2 -2.3 73
2017-11-28 03:00:00 6.8 8 Norte 24 Norte 0 1020.8 -2.4 71
2017-11-28 02:00:00 7.5 20 Norte 26 Norte 0 1021.6 -2.2 66
2017-11-28 01:00:00 8.2 17 Norte 28 Norte 0 1022.5 -1.7 65
2017-11-28 00:00:00 8 17 Norte 26 Norte 0 1023.2 -1.5 67
2017-11-27 23:00:00 8.1 14 Norte 18 Norte 0 1023.8 -1.5 72
2017-11-27 22:00:00 8.2 10 Norte 17 Norte 0 1024.2 -1.3 71
2017-11-27 21:00:00 8.6 5 Norte 9 Norte 0 1024.7 -1 70
2017-11-27 20:00:00 9.3 5 Norte 17 Norte 0 1025.3 -0.5 67
2017-11-27 19:00:00 9.6 5 Noroeste 9 Oeste 0 1025.5 -0.6 64
2017-11-27 18:00:00 11 7 Oeste 13 Oeste 0 1025.7 -0.9 58
2017-11-27 17:00:00 12.5 11 Oeste 21 Oeste 0 1025.8 -1.5 52
2017-11-27 16:00:00 13.3 16 Sudoeste 24 Oeste 0 1026.1 -2 48
2017-11-27 15:00:00 13.8 17 Sudoeste 26 Sudoeste 0 1026.6 -2.4 45
2017-11-27 14:00:00 14.3 17 Sudoeste 26 Sudoeste 0 1027.3 -2.7 49
2017-11-27 13:00:00 14.4 11 Sur 26 Sudeste 0 1028.1 -2 56
2017-11-27 12:00:00 12.6 10 Norte 22 Norte 0 1029 -0.8 49
2017-11-27 11:00:00 9.7 19 Norte 32 Norte 0 1030 0.5 55
2017-11-27 10:00:00 6.9 23 Norte 32 Norte 0 1030.1 0.8 63
2017-11-27 09:00:00 5.4 24 Norte 32 Norte 0 1029.8 0.7 68
2017-11-27 08:00:00 5.3 23 Norte 32 Norte 0 1029.5 0.2 69
2017-11-27 07:00:00 5.4 20 Norte 26 Norte 0 1029.3 0 70
2017-11-27 06:00:00 5.9 20 Norte 26 Norte 0 1029.1 -0.2 69
2017-11-27 05:00:00 5.8 14 Norte 24 Norte 0 1029.3 0.3 68
2017-11-27 04:00:00 6.2 21 Norte 26 Norte 0 1029.3 0.1 65
2017-11-27 03:00:00 7.1 17 Norte 26 Norte 0 1029.3 -0.1 62
2017-11-27 02:00:00 7.4 18 Norte 28 Nordeste 0 1029 -0.2 59
2017-11-27 01:00:00 7.4 17 Norte 28 Norte 0 1029.2 0.2 61
2017-11-27 00:00:00 7.3 15 Norte 22 Norte 0 1029.4 1.2 62
2017-11-26 23:00:00 7.4 14 Norte 17 Norte 0 1029.2 1.5 62
2017-11-26 22:00:00 7.5 8 Norte 18 Norte 0 1029 1.4 61
2017-11-26 21:00:00 8.8 14 Norte 17 Norte 0 1028.2 0.9 56
2017-11-26 20:00:00 10.1 11 Norte 13 Norte 0 1027.7 1.1 46
2017-11-26 19:00:00 11.6 4 Noroeste 18 Noroeste 0 1027.6 1.4 40
2017-11-26 18:00:00 12.6 8 Norte 11 Norte 0 1027.3 1.5 56
2017-11-26 17:00:00 14.7 4 Sudeste 15 Sur 0 1026.6 0.5 48
2017-11-26 16:00:00 14.9 9 Sur 18 Sur 0 1026.2 -0.4 46
2017-11-26 15:00:00 15.3 12 Sur 18 Sudoeste 0 1025.8 -1.3 47
2017-11-26 14:00:00 15.7 7 Sudoeste 15 Norte 0 1026.1 -1.1 46
2017-11-26 13:00:00 13.8 12 Norte 39 Norte 0 1026.6 -0.6 45
2017-11-26 12:00:00 11.9 20 Norte 41 Norte 0 1027.1 0.6 48
2017-11-26 11:00:00 10.4 20 Norte 28 Norte 0 1027.2 1.8 51
2017-11-26 10:00:00 9.1 19 Norte 33 Norte 0 1027.2 2.7 56
2017-11-26 09:00:00 8.1 21 Norte 42 Norte 0 1026.5 2.7 59
2017-11-26 08:00:00 7.9 22 Norte 42 Norte 0 1025.4 1.9 59
2017-11-26 07:00:00 8.3 22 Norte 32 Norte 0 1024.5 1.2 58
2017-11-26 06:00:00 9.1 14 Norte 30 Norte 0 1023.8 0.5 53
2017-11-26 05:00:00 8.8 20 Norte 28 Norte 0 1023.5 1 55
2017-11-26 04:00:00 9.3 16 Norte 26 Norte 0 1023.3 1.2 54
2017-11-26 03:00:00 9.9 16 Norte 24 Norte 0 1023.3 1.6 52
2017-11-26 02:00:00 10.6 18 Norte 26 Norte 0 1022.5 1.2 50
2017-11-26 01:00:00 10.2 10 Norte 24 Nordeste 0 1022.1 1.4 55
2017-11-26 00:00:00 10.9 10 Norte 22 Norte 0 1021.7 1.5 59
2017-11-25 23:00:00 12.4 15 Norte 21 Norte 0 1021.3 1.9 61
2017-11-25 22:00:00 14.5 6 Norte 18 Oeste 0 1020.7 1.6 73
2017-11-25 21:00:00 16.1 9 Oeste 37 Sudoeste 0 1020.2 1.7 77
2017-11-25 20:00:00 16.7 18 Sur 39 Sur 0 1019.4 1.8 75
2017-11-25 19:00:00 16.6 12 Sudeste 24 Este 0 1019.1 2.1 74
2017-11-25 18:00:00 16.2 2 Sudoeste 9 Sudoeste 0 1018.5 2.1 68
2017-11-25 17:00:00 16.9 5 Nordeste 17 Norte 0 1017.6 1.6 60
2017-11-25 16:00:00 17.3 7 Norte 13 Norte 0 1017 0.7 58
2017-11-25 15:00:00 17.4 11 Norte 21 Norte 0 1016.4 0.3 57
2017-11-25 14:00:00 16.6 9 Norte 18 Norte 0 1016 -0.2 60
2017-11-25 13:00:00 15.3 9 Norte 18 Norte 0 1016.3 0.8 65
2017-11-25 12:00:00 15.3 0 Calma 13 Sudeste 0 1016.1 1 59
2017-11-25 11:00:00 14.3 6 Norte 17 Norte 0 1016.2 1.6 64
2017-11-25 10:00:00 13.3 5 Este 8 Sudeste 0 1015.5 1.1 69
2017-11-25 09:00:00 11.6 5 Norte 13 Este 0 1015.1 0.8 75
2017-11-25 08:00:00 11.4 9 Este 13 Este 0 1014.6 -0.1 72
2017-11-25 07:00:00 11.9 5 Norte 15 Oeste 0 1014.4 -0.3 76
2017-11-25 06:00:00 10.5 4 Noroeste 8 Norte 0 1014.3 -1.3 78
2017-11-25 05:00:00 11.3 5 Norte 8 Norte 0 1014.7 -1.1 73
2017-11-25 04:00:00 12.1 4 Norte 13 Norte 0 1014.7 -1.6 69
2017-11-25 03:00:00 11.9 5 Norte 13 Norte 0 1015.6 -1 70
2017-11-25 02:00:00 12.2 4 Norte 9 Norte 0 1015.8 -1 73
2017-11-25 01:00:00 12.7 7 Oeste 13 Nordeste 0 1016.3 -0.8 70
2017-11-25 00:00:00 14.1 5 Norte 21 Norte 0 1016.6 -0.5 62
2017-11-24 23:00:00 14.8 6 Norte 13 Norte 0 1016.8 -0.2 60
2017-11-24 22:00:00 15.1 3 Norte 18 Norte 0 1017.1 0.3 65
2017-11-24 21:00:00 16 4 Noroeste 15 Oeste 0 1017.1 0.4 80
2017-11-24 20:00:00 16.2 10 Oeste 22 Oeste 0 1017 0.4 87
2017-11-24 19:00:00 17.6 20 Oeste 26 Oeste 0 1016.8 0.3 85
2017-11-24 18:00:00 17.6 18 Oeste 24 Oeste 0 1016.7 0.4 86
2017-11-24 17:00:00 18.4 15 Sudoeste 28 Sudoeste 0 1016.6 0 77
2017-11-24 16:00:00 18.8 21 Sudoeste 33 Sudoeste 0 1016.5 -1 72
2017-11-24 15:00:00 19.7 22 Sudoeste 28 Sudoeste 0 1016.3 -1.9 66
2017-11-24 14:00:00 19.8 18 Sudoeste 26 Sudoeste 0 1016.6 -1.9 54
2017-11-24 13:00:00 19.2 14 Sudoeste 21 Sudoeste 0 1017.5 -0.8 64
2017-11-24 12:00:00 18.1 6 Sudoeste 18 Norte 0 1018.2 -0.1 46
2017-11-24 11:00:00 16.1 14 Norte 21 Norte 0 1018.5 0.5 47
2017-11-24 10:00:00 13.3 14 Norte 18 Norte 0 1018.3 0.8 56
2017-11-24 09:00:00 11.2 14 Norte 21 Norte 0 1018.3 0.8 65
2017-11-24 08:00:00 10.8 4 Norte 11 Norte 0 1018 0.7 66
2017-11-24 07:00:00 10.9 10 Norte 18 Norte 0 1017.5 0 64
2017-11-24 06:00:00 10 7 Norte 13 Norte 0 1017.5 -0.3 70
2017-11-24 05:00:00 10.6 4 Norte 13 Norte 0 1017.3 -0.4 67
2017-11-24 04:00:00 10.8 5 Nordeste 15 Norte 0 1017.5 -0.5 71
2017-11-24 03:00:00 11.3 5 Norte 17 Norte 0 1017.8 -0.4 75
2017-11-24 02:00:00 11.5 14 Norte 28 Nordeste 0 1017.7 -0.4 77
2017-11-24 01:00:00 12.1 5 Norte 13 Norte 0 1018 -0.2 86
2017-11-24 00:00:00 12.9 8 Norte 18 Sudoeste 0 1018.2 0.1 86
2017-11-23 23:00:00 13.8 9 Sudoeste 18 Sudoeste 0 1018.1 0.1 91
2017-11-23 22:00:00 13.5 5 Este 13 Oeste 0 1018.2 0.9 88
2017-11-23 21:00:00 14.9 8 Noroeste 28 Sudoeste 0 1018.1 1.2 89
2017-11-23 20:00:00 15.9 20 Oeste 32 Oeste 0 1018 1.5 89
2017-11-23 19:00:00 16.3 25 Oeste 32 Oeste 0 1017.3 1.1 86
2017-11-23 18:00:00 16.6 23 Sudoeste 32 Sudoeste 0 1016.9 0.6 85
2017-11-23 17:00:00 17.5 22 Sudoeste 32 Sudoeste 0 1016.5 0.1 80
2017-11-23 16:00:00 18.5 22 Sudoeste 35 Sudoeste 0 1016.2 -0.8 76
2017-11-23 15:00:00 18.9 25 Sudoeste 33 Oeste 0 1016.3 -1 72
2017-11-23 14:00:00 19.1 25 Sudoeste 33 Sudoeste 0 1016.4 -1.2 72
2017-11-23 13:00:00 19.1 24 Sudoeste 32 Sudoeste 0 1017 -0.4 70
2017-11-23 12:00:00 16.4 6 Norte 18 Norte 0 1017.3 0.4 67
2017-11-23 11:00:00 14.2 13 Norte 22 Norte 0 1017.6 1.1 74
2017-11-23 10:00:00 11.6 18 Norte 26 Norte 0 1017.4 1.5 80
2017-11-23 09:00:00 11.2 16 Norte 30 Norte 0 1016.9 1.3 83
2017-11-23 08:00:00 10.2 19 Norte 26 Norte 0 1016.5 1 86
2017-11-23 07:00:00 9.8 23 Norte 32 Norte 0 1015.9 0.7 87
2017-11-23 06:00:00 10.1 20 Norte 28 Norte 0 1015.6 0 87
2017-11-23 05:00:00 9.9 24 Norte 33 Norte 0 1015.5 0.3 87
2017-11-23 04:00:00 9.9 17 Norte 28 Norte 0 1015.2 0 88
2017-11-23 03:00:00 9.9 22 Norte 30 Norte 0 1015.6 0.2 91
2017-11-23 02:00:00 10.3 15 Norte 21 Norte 0 1015.2 -0.1 91
2017-11-23 01:00:00 11.4 14 Norte 18 Norte 0 1015.2 0.1 90
2017-11-23 00:00:00 11.7 14 Norte 18 Norte 0 1015.4 0.5 90
2017-11-22 23:00:00 12.2 13 Norte 18 Norte 0 1015.3 0.4 89
2017-11-22 22:00:00 12 12 Norte 17 Norte 0 1015.1 0.2 88
2017-11-22 21:00:00 13.5 7 Norte 9 Norte 0 1014.9 0.2 86
2017-11-22 20:00:00 13.5 6 Noroeste 13 Oeste 0 1014.9 0.4 87
2017-11-22 19:00:00 15.4 13 Oeste 17 Sudoeste 0 1014.9 0.3 82
2017-11-22 18:00:00 16 8 Sudoeste 11 Sudoeste 0 1014.7 0 81
2017-11-22 17:00:00 17.6 8 Sudoeste 15 Oeste 0 1014.5 -0.6 75
2017-11-22 16:00:00 18.3 11 Sudoeste 21 Sudoeste 0 1014.6 -1.2 72
2017-11-22 15:00:00 18.7 14 Sudoeste 24 Sudoeste 0 1014.7 -1.8 68
2017-11-22 14:00:00 18.9 18 Sudoeste 26 Oeste 0 1015.1 -2 65
2017-11-22 13:00:00 18.9 18 Oeste 24 Oeste 0 1015.8 -1.4 65
2017-11-22 12:00:00 16.2 6 Norte 15 Norte 0 1016.5 -0.7 60
2017-11-22 11:00:00 13.2 14 Norte 18 Norte 0 1017.1 0.2 61
2017-11-22 10:00:00 10.1 14 Norte 22 Norte 0 1017.2 0.4 66
2017-11-22 09:00:00 8.1 17 Norte 26 Norte 0 1017.2 0.3 70
2017-11-22 08:00:00 7.6 17 Norte 24 Norte 0 1016.9 -0.3 70
2017-11-22 07:00:00 7.4 15 Norte 26 Norte 0 1016.8 -0.7 72
2017-11-22 06:00:00 7.9 19 Norte 24 Norte 0 1016.9 -1.2 70
2017-11-22 05:00:00 8.2 15 Norte 21 Norte 0 1017.2 -1 70
2017-11-22 04:00:00 8.7 16 Norte 22 Norte 0 1017.5 -1.1 68
2017-11-22 03:00:00 9 15 Norte 22 Norte 0 1018.1 -0.9 69
2017-11-22 02:00:00 9.8 17 Norte 28 Nordeste 0 1018.2 -0.9 65
2017-11-22 01:00:00 10.4 16 Norte 24 Norte 0 1018.6 -0.5 64
2017-11-22 00:00:00 10.9 6 Norte 17 Norte 0 1019 -0.1 63
2017-11-21 23:00:00 10.6 3 Norte 11 Norte 0 1019.1 -0.1 69
2017-11-21 22:00:00 10.8 4 Norte 9 Norte 0 1019.1 0 73
2017-11-21 21:00:00 11 3 Norte 8 Norte 0 1019.1 0.1 74
2017-11-21 20:00:00 12.7 6 Norte 9 Norte 0 1019.2 0.2 70
2017-11-21 19:00:00 14.9 6 Oeste 13 Oeste 0 1019.1 0.1 67
2017-11-21 18:00:00 16.2 8 Sudoeste 13 Sudoeste 0 1019 0 62
2017-11-21 17:00:00 17.9 10 Sudoeste 21 Sudoeste 0 1019 -0.6 55
2017-11-21 16:00:00 18.9 14 Sudoeste 21 Sudoeste 0 1019 -1.1 48
2017-11-21 15:00:00 19.2 14 Sudoeste 18 Sudoeste 0 1019 -1.8 43
2017-11-21 14:00:00 18.6 12 Sudoeste 17 Sudoeste 0 1019.6 -1.6 51
2017-11-21 13:00:00 18.9 3 Nordeste 17 Norte 0 1020.1 -0.9 39
2017-11-21 12:00:00 16.7 8 Norte 21 Norte 0 1020.8 -0.4 44
2017-11-21 11:00:00 13.7 15 Norte 26 Norte 0 1021.2 0.3 51
2017-11-21 10:00:00 10.9 21 Norte 30 Norte 0 1021 0.3 57
2017-11-21 09:00:00 8.7 23 Norte 32 Norte 0 1021.2 0.7 64
2017-11-21 08:00:00 7.8 23 Norte 32 Norte 0 1020.9 0.4 67
2017-11-21 07:00:00 7.6 20 Norte 30 Norte 0 1020.7 0.2 68
2017-11-21 06:00:00 8 18 Norte 26 Norte 0 1020.5 -0.8 68
2017-11-21 05:00:00 8.3 21 Norte 30 Norte 0 1020.5 -0.9 66
2017-11-21 04:00:00 9 19 Norte 26 Norte 0 1020.5 -1 65
2017-11-21 03:00:00 9.5 20 Norte 26 Norte 0 1021.3 -0.5 62
2017-11-21 02:00:00 9.6 19 Norte 26 Norte 0 1021.4 -0.4 63
2017-11-21 01:00:00 10.4 18 Norte 24 Norte 0 1021.5 -0.5 61
2017-11-21 00:00:00 10.8 15 Norte 21 Norte 0 1021.8 -0.3 62
2017-11-20 23:00:00 10.9 12 Norte 17 Norte 0 1021.8 -0.2 65
2017-11-20 22:00:00 11.2 13 Norte 17 Norte 0 1022 0.3 67
2017-11-20 21:00:00 11.3 4 Norte 13 Norte 0 1022.1 0.6 66
2017-11-20 20:00:00 11.8 10 Norte 15 Sur 0 1022 0.4 66
2017-11-20 19:00:00 13.8 7 Oeste 13 Oeste 0 1021.7 0.1 59
2017-11-20 18:00:00 14.9 9 Oeste 13 Oeste 0 1021.5 -0.1 54
2017-11-20 17:00:00 16.5 11 Oeste 18 Sudoeste 0 1021.6 -0.6 50
2017-11-20 16:00:00 17.7 14 Sudoeste 21 Sudoeste 0 1021.6 -0.8 39
2017-11-20 15:00:00 17.8 13 Sudoeste 17 Sudoeste 0 1021.6 -1.6 46
2017-11-20 14:00:00 18.4 12 Sudoeste 15 Sur 0 1022.2 -1.3 47
2017-11-20 13:00:00 17.2 8 Norte 18 Norte 0 1022.4 -1 43
2017-11-20 12:00:00 15.2 15 Norte 21 Norte 0 1023.2 0.2 49
2017-11-20 11:00:00 12.8 16 Norte 30 Norte 0 1023.5 1 55
2017-11-20 10:00:00 9.3 21 Norte 28 Norte 0 1023.4 1.2 65
2017-11-20 09:00:00 7.4 21 Norte 30 Norte 0 1023 0.6 72
2017-11-20 08:00:00 6.9 20 Norte 30 Norte 0 1022.5 0.6 74
2017-11-20 07:00:00 7.4 17 Norte 28 Norte 0 1022.2 0.2 74
2017-11-20 06:00:00 7.9 21 Norte 33 Norte 0 1022.4 0.3 72
2017-11-20 05:00:00 7.7 22 Norte 30 Norte 0 1021.9 -0.1 74
2017-11-20 04:00:00 8.1 21 Norte 32 Norte 0 1022 -0.2 73
2017-11-20 03:00:00 8.3 21 Norte 28 Norte 0 1022.1 -0.1 73
2017-11-20 02:00:00 9.3 21 Norte 32 Norte 0 1022 0 70
2017-11-20 01:00:00 9.6 21 Norte 28 Norte 0 1022.2 0.3 70
2017-11-20 00:00:00 10.5 16 Norte 22 Norte 0 1022.2 0.8 67
2017-11-19 23:00:00 10.8 17 Norte 22 Norte 0 1022 1 66
2017-11-19 22:00:00 11.1 13 Norte 18 Norte 0 1021.9 1.2 67
2017-11-19 21:00:00 10.7 6 Norte 13 Norte 0 1021.4 1.3 76
2017-11-19 20:00:00 11.4 11 Norte 15 Norte 0 1021 1.1 76
2017-11-19 19:00:00 12.5 6 Noroeste -- -- 0 1020.7 1 75
2017-11-19 18:00:00 14.6 5 Oeste -- -- 0 1020.1 0.4 70
2017-11-19 17:00:00 16.2 9 Sudoeste 15 Oeste 0 1019.9 -0.1 63
2017-11-19 16:00:00 17.2 13 Sudoeste 17 Sudoeste 0 1019.7 -0.7 58
2017-11-19 15:00:00 17.5 14 Sudoeste 17 Sudoeste 0 1019.7 -1.2 54
2017-11-19 14:00:00 18.1 10 Norte 22 Norte 0 1020 -1.2 43
2017-11-19 13:00:00 16.8 17 Norte 30 Norte 0 1020.4 -0.7 47
2017-11-19 12:00:00 14.7 20 Norte 32 Norte 0 1020.9 0.1 52
2017-11-19 11:00:00 12.5 20 Norte 32 Norte 0 1021.2 0.8 58
2017-11-19 10:00:00 10.1 23 Norte 32 Norte 0 1021.1 1.3 65
2017-11-19 09:00:00 8.6 26 Norte 35 Norte 0 1020.8 1.1 69
2017-11-19 08:00:00 7.7 23 Norte 32 Norte 0 1020.4 0.5 72
2017-11-19 07:00:00 7.3 24 Norte 30 Norte 0 1019.8 -0.2 74
2017-11-19 06:00:00 7.4 23 Norte 30 Norte 0 1019.7 -0.5 75
2017-11-19 05:00:00 7.9 22 Norte 30 Norte 0 1019.9 -0.2 73
2017-11-19 04:00:00 8 14 Norte 24 Norte 0 1020 -0.2 74
2017-11-19 03:00:00 8.9 15 Norte 32 Norte 0 1020.2 -0.4 70
2017-11-19 02:00:00 9.5 21 Norte 30 Norte 0 1020.1 -0.4 67
2017-11-19 01:00:00 10.3 17 Norte 24 Norte 0 1020.2 -0.5 64
2017-11-19 00:00:00 11 17 Norte 22 Norte 0 1020.6 0.2 63
2017-11-18 23:00:00 10.9 10 Norte 17 Norte 0 1020.5 0.2 67
2017-11-18 22:00:00 11.6 11 Norte 17 Norte 0 1020.7 0.9 70
2017-11-18 21:00:00 12.1 9 Norte 11 Norte 0 1020.4 1 79
2017-11-18 20:00:00 12.7 7 Norte 9 Norte 0 1020.3 1.2 80
2017-11-18 19:00:00 14.1 3 Oeste -- -- 0 1019.8 1.2 74
2017-11-18 18:00:00 15.9 6 Sudoeste 8 Oeste 0 1019.4 0.9 68
2017-11-18 17:00:00 17.4 6 Oeste 13 Oeste 0 1019.1 0.3 63
2017-11-18 16:00:00 18.3 12 Sudoeste 17 Sudoeste 0 1018.6 -0.8 62
2017-11-18 15:00:00 18.8 12 Sudoeste 18 Sudoeste 0 1018.5 -1.3 60
2017-11-18 14:00:00 19.5 3 Nordeste 15 Norte 0 1018.8 -0.8 53
2017-11-18 13:00:00 17.8 10 Norte 26 Nordeste 0 1019.4 -0.2 51
2017-11-18 12:00:00 15.8 15 Norte 24 Norte 0 1019.8 0.5 48
2017-11-18 11:00:00 13.3 14 Norte 30 Norte 0 1019.6 0.6 52
2017-11-18 10:00:00 10.2 23 Norte 41 Norte 0 1019.6 0.9 58
2017-11-18 09:00:00 8.6 23 Norte 32 Norte 0 1019.3 0.9 63
2017-11-18 08:00:00 7.7 21 Norte 30 Norte 0 1019 0.6 66
2017-11-18 07:00:00 8.4 18 Norte 32 Norte 0 1018.7 0.2 62
2017-11-18 06:00:00 8 23 Norte 30 Norte 0 1018.4 0 64
2017-11-18 05:00:00 8.8 23 Norte 32 Norte 0 1018.4 0 61
2017-11-18 04:00:00 8.9 24 Norte 41 Norte 0 1018.5 -0.3 62
2017-11-18 03:00:00 9.2 22 Norte 32 Norte 0 1018.4 -0.6 61
2017-11-18 02:00:00 9.5 21 Norte 26 Norte 0 1018.4 -0.6 61
2017-11-18 01:00:00 10.3 19 Norte 28 Norte 0 1018.8 0.3 59
2017-11-18 00:00:00 11.3 18 Norte 26 Norte 0 1019 0.8 54
2017-11-17 23:00:00 12.7 21 Norte 26 Norte 0 1019 0.9 48
2017-11-17 22:00:00 12.3 13 Norte 17 Norte 0 1018.5 0.5 53
2017-11-17 21:00:00 12.7 5 Norte 11 Norte 0 1018.2 0.7 58
2017-11-17 20:00:00 13.1 5 Norte 9 Noroeste 0 1018.1 0.9 68
2017-11-17 19:00:00 14.7 4 Norte 24 Norte 0 1018 0.6 63
2017-11-17 18:00:00 16 10 Oeste 13 Oeste 0 1017.5 -0.1 65
2017-11-17 17:00:00 17.8 10 Oeste 21 Sudoeste 0 1017.2 -1 56
2017-11-17 16:00:00 18.8 14 Sudoeste 21 Sudoeste 0 1017.4 -1.5 48
2017-11-17 15:00:00 19.1 12 Sudoeste 17 Oeste 0 1017.6 -1.9 42
2017-11-17 14:00:00 18.6 8 Sudoeste 17 Sudoeste 0 1018.2 -1.5 46
2017-11-17 13:00:00 19.1 4 Sur 30 Este 0 1018.9 -0.9 31
2017-11-17 12:00:00 15.7 13 Norte 32 Norte 0 1019.5 -0.3 39
2017-11-17 11:00:00 12.5 18 Norte 30 Norte 0 1019.7 0.1 45
2017-11-17 10:00:00 9.9 22 Norte 32 Norte 0 1019.8 0.5 53
2017-11-17 09:00:00 7.4 17 Norte 32 Norte 0 1019.8 0.4 60
2017-11-17 08:00:00 6.1 24 Norte 32 Norte 0 1019.6 0 66
2017-11-17 07:00:00 6.2 24 Norte 32 Norte 0 1019.3 -0.5 65
2017-11-17 06:00:00 6.3 23 Norte 30 Noroeste 0 1019.4 -0.7 65
2017-11-17 05:00:00 6.9 23 Norte 30 Norte 0 1019.6 -0.3 65
2017-11-17 04:00:00 7.1 21 Norte 30 Norte 0 1019.8 -0.6 66
2017-11-17 03:00:00 7.8 22 Norte 30 Norte 0 1020.1 -0.4 65
2017-11-17 02:00:00 8.2 21 Norte 32 Norte 0 1019.9 -0.5 67
2017-11-17 01:00:00 8.8 23 Norte 32 Norte 0 1020.4 0.1 66
2017-11-17 00:00:00 9.4 17 Norte 22 Norte 0 1020.5 0.3 70